Airfield :
LOGIN :

Register | Disclaimer

   EN    FR    IT 

 










Legend :    VFR   Marginal VFR   IFR   Intensive IFR   Very Intensive IFR
Visi :
Ceiling :
>= 8 km
>= 3000ft
5 to 8 km
1000 to 3000 ft
1500m to 5 km
500 to 1000 ft
800 to 1500m
200 to 500 ft
< 800m
< 200 ft
Symbols :   Thunderstorms  Fog  Heavy snow  Heavy precipitations  Wind > 20 kt
SIGMETs :     Misc.  Thunderstorms  Icing  Turbulence  Mountain Waves  Volcanic Ashes







- Airport Elevation : 1306 ft
- IATA code : ACH


LSZR - Alten Rhein

CURRENT METAR :
  • 141820Z 14010KT 9999 -RA FEW010 BKN023 04/02 Q1000 NOSIG RMK Q

EXPIRED METARs :
  • 141750Z 15007KT 9999 -RA SCT016 BKN040 03/02 Q1001 NOSIG RMK O
  • 141720Z VRB04KT 9999 -RA SCT016 BKN040 04/02 Q1001 NOSIG RMK O
  • 141650Z 17011KT 9999 -RA SCT017 BKN050 04/01 Q1002 NOSIG RMK N
  • 141620Z 17011KT 9999 BKN050 05/01 Q1002 NOSIG RMK M
  • 141550Z 21006KT 170V280 9999 BKN050 05/00 Q1002 NOSIG RMK M

TAF TAF LSZR
Valid from the 14 at 15:00 until the 15 at 00:00 UTC


141425Z 1415/1424 22009KT 9999 -RA FEW030 SCT050 BKN080
TEMPO 1415/1424 24015G30KT SHRA
PROB40
TEMPO 1419/1424 2500 -SHRASN BKN010
ATIS : +41 71 858 51 66
No reported NOTAMs for that airfield.
1 SIGMET reported for the Switzerland FIR (LSAS) :
 
Severe turbulence
LSAS SIGMET 4 VALID 141705/141900 LSZH
LSAS SWITZERLAND FIR SEV TURB FCST NW OF LINE N4546 E00708 - N4736 E00733 3000FT/FL070 STNR NC=



MET'MAP, your aeronautical weather chart ! - Copyright ORBIFLY December 2007 - Disclaimer

ORBIFLY MET'MAP TEAM :

Programming & Development : Alexandra Zaïnal
Concept & Development : Baudouin d'Aumeries
Co-Development & Prog : Marc-Olivier Méhu
Technical & hardware support : Manuel Goepfert

Contact : metmap@orbifly.com




SOURCES & CREDITS :

   NOAA